Terminal Aerodrome Forecast
Issued by NWS

Home | Current Version | Previous Version | Text Only | Print | Product List | Glossary On
Versions: 1 2 3 4 5 6 7 8 9 10 11 12 13 14 15
000
FTUS43 KGRB 130500
TAFCWA
TAF
KCWA 130533Z 1306/1406 28007KT P6SM BKN006
      TEMPO 1306/1309 SCT006
     FM131200 30008KT P6SM SCT009 SCT070
     FM131500 29012G18KT P6SM SCT050
     FM140000 28007KT P6SM SCT040 SCT080
      AMD LTD TO CLD VIS AND WIND TIL 131200=

USA.gov is the U.S. government's official web portal to all federal, state and local government web resources and services.